Terminal Aerodrome Forecast
Issued by NWS

Home | Current Version | Previous Version | Text Only | Print | Product List | Glossary On
Versions: 1 2 3 4 5 6 7 8 9 10 11 12 13 14 15 16 17 18 19 20 21 22 23 24
000
FTUS41 KBUF 260525
TAFIAG
TAF
KIAG 260525Z 2606/2706 00000KT P6SM SKC
     FM260800 18004KT P6SM SCT120
     FM261100 VRB03KT P6SM BKN060
     FM261500 20006KT P6SM VCTS BKN060CB BKN100
     FM261800 23011KT 6SM -SHRA VCTS BKN040CB OVC100
     FM262000 23009KT P6SM BKN050 OVC100
     FM270100 17005KT P6SM SCT120=

USA.gov is the U.S. government's official web portal to all federal, state and local government web resources and services.